sensor_id;sensor_type;location;lat;lon;timestamp;temperature;humidity
6098;DHT22;3077;50.922;6.584;2023-02-15T00:01:06;4.30;1.00
6098;DHT22;3077;50.922;6.584;2023-02-15T00:03:32;4.40;1.00
6098;DHT22;3077;50.922;6.584;2023-02-15T00:05:57;4.40;1.00
6098;DHT22;3077;50.922;6.584;2023-02-15T00:08:23;4.30;1.00
6098;DHT22;3077;50.922;6.584;2023-02-15T00:10:49;4.40;1.00
6098;DHT22;3077;50.922;6.584;2023-02-15T00:13:14;4.30;1.00
6098;DHT22;3077;50.922;6.584;2023-02-15T00:15:40;4.20;1.00
6098;DHT22;3077;50.922;6.584;2023-02-15T00:18:05;4.20;1.00
6098;DHT22;3077;50.922;6.584;2023-02-15T00:20:31;4.20;1.00
6098;DHT22;3077;50.922;6.584;2023-02-15T00:22:57;4.20;1.00
6098;DHT22;3077;50.922;6.584;2023-02-15T00:25:22;4.20;1.00
6098;DHT22;3077;50.922;6.584;2023-02-15T00:27:48;4.20;1.00
6098;DHT22;3077;50.922;6.584;2023-02-15T00:30:13;4.10;1.00
6098;DHT22;3077;50.922;6.584;2023-02-15T00:32:39;4.10;1.00
6098;DHT22;3077;50.922;6.584;2023-02-15T00:35:05;4.10;1.00
6098;DHT22;3077;50.922;6.584;2023-02-15T00:37:32;4.10;1.00
6098;DHT22;3077;50.922;6.584;2023-02-15T00:39:57;4.00;1.00
6098;DHT22;3077;50.922;6.584;2023-02-15T00:42:23;4.00;1.00
6098;DHT22;3077;50.922;6.584;2023-02-15T00:44:48;3.90;1.00
6098;DHT22;3077;50.922;6.584;2023-02-15T00:47:14;4.00;1.00
6098;DHT22;3077;50.922;6.584;2023-02-15T00:49:40;3.90;1.00
6098;DHT22;3077;50.922;6.584;2023-02-15T00:52:05;3.90;1.00
6098;DHT22;3077;50.922;6.584;2023-02-15T00:54:31;3.90;1.00
6098;DHT22;3077;50.922;6.584;2023-02-15T00:56:56;3.90;1.00
6098;DHT22;3077;50.922;6.584;2023-02-15T00:59:22;3.90;1.00
6098;DHT22;3077;50.922;6.584;2023-02-15T01:01:47;3.80;1.00
6098;DHT22;3077;50.922;6.584;2023-02-15T01:04:13;3.80;1.00
6098;DHT22;3077;50.922;6.584;2023-02-15T01:06:38;3.80;1.00
6098;DHT22;3077;50.922;6.584;2023-02-15T01:09:04;3.70;1.00
6098;DHT22;3077;50.922;6.584;2023-02-15T01:11:30;3.70;1.00
6098;DHT22;3077;50.922;6.584;2023-02-15T01:13:57;3.70;1.00
6098;DHT22;3077;50.922;6.584;2023-02-15T01:16:25;3.60;1.00
6098;DHT22;3077;50.922;6.584;2023-02-15T01:18:51;3.60;1.00
6098;DHT22;3077;50.922;6.584;2023-02-15T01:21:19;3.50;1.00
6098;DHT22;3077;50.922;6.584;2023-02-15T01:23:45;3.50;1.00
6098;DHT22;3077;50.922;6.584;2023-02-15T01:26:11;3.50;1.00
6098;DHT22;3077;50.922;6.584;2023-02-15T01:28:36;3.50;1.00
6098;DHT22;3077;50.922;6.584;2023-02-15T01:31:14;3.50;1.00
6098;DHT22;3077;50.922;6.584;2023-02-15T01:33:40;3.50;1.00
6098;DHT22;3077;50.922;6.584;2023-02-15T01:36:06;3.40;1.00
6098;DHT22;3077;50.922;6.584;2023-02-15T01:38:32;3.40;1.00
6098;DHT22;3077;50.922;6.584;2023-02-15T01:40:58;3.40;1.00
6098;DHT22;3077;50.922;6.584;2023-02-15T01:43:52;3.40;1.00
6098;DHT22;3077;50.922;6.584;2023-02-15T01:46:22;3.30;1.00
6098;DHT22;3077;50.922;6.584;2023-02-15T01:48:51;3.40;1.00
6098;DHT22;3077;50.922;6.584;2023-02-15T01:51:19;3.40;1.00
6098;DHT22;3077;50.922;6.584;2023-02-15T01:54:01;3.40;1.00
6098;DHT22;3077;50.922;6.584;2023-02-15T01:56:32;3.30;1.00
6098;DHT22;3077;50.922;6.584;2023-02-15T01:59:02;3.30;1.00
6098;DHT22;3077;50.922;6.584;2023-02-15T02:01:28;3.20;1.00
6098;DHT22;3077;50.922;6.584;2023-02-15T02:06:20;3.20;1.00
6098;DHT22;3077;50.922;6.584;2023-02-15T02:08:46;3.10;1.00
6098;DHT22;3077;50.922;6.584;2023-02-15T02:11:14;3.10;1.00
6098;DHT22;3077;50.922;6.584;2023-02-15T02:13:42;3.00;1.00
6098;DHT22;3077;50.922;6.584;2023-02-15T02:16:47;3.00;1.00
6098;DHT22;3077;50.922;6.584;2023-02-15T02:22:14;2.90;1.00
6098;DHT22;3077;50.922;6.584;2023-02-15T02:24:54;2.90;1.00
6098;DHT22;3077;50.922;6.584;2023-02-15T02:28:22;2.90;1.00
6098;DHT22;3077;50.922;6.584;2023-02-15T02:36:14;2.70;2.20
6098;DHT22;3077;50.922;6.584;2023-02-15T02:39:00;2.70;7.20
6098;DHT22;3077;50.922;6.584;2023-02-15T02:46:39;2.60;19.10
6098;DHT22;3077;50.922;6.584;2023-02-15T02:49:07;2.60;26.90
6098;DHT22;3077;50.922;6.584;2023-02-15T02:51:33;2.50;27.00
6098;DHT22;3077;50.922;6.584;2023-02-15T02:54:01;2.50;37.20
6098;DHT22;3077;50.922;6.584;2023-02-15T02:56:43;2.60;37.10
6098;DHT22;3077;50.922;6.584;2023-02-15T02:59:15;2.60;35.70
6098;DHT22;3077;50.922;6.584;2023-02-15T03:01:52;2.60;36.70
6098;DHT22;3077;50.922;6.584;2023-02-15T03:04:32;2.50;61.50
6098;DHT22;3077;50.922;6.584;2023-02-15T03:07:03;2.40;41.40
6098;DHT22;3077;50.922;6.584;2023-02-15T03:09:36;2.50;69.10
6098;DHT22;3077;50.922;6.584;2023-02-15T03:12:12;2.40;74.10
6098;DHT22;3077;50.922;6.584;2023-02-15T03:14:40;2.40;82.40
6098;DHT22;3077;50.922;6.584;2023-02-15T03:17:08;2.40;90.90
6098;DHT22;3077;50.922;6.584;2023-02-15T03:19:35;2.30;92.00
6098;DHT22;3077;50.922;6.584;2023-02-15T03:22:08;2.30;97.30
6098;DHT22;3077;50.922;6.584;2023-02-15T03:24:48;2.30;97.60
6098;DHT22;3077;50.922;6.584;2023-02-15T03:27:19;2.30;99.90
6098;DHT22;3077;50.922;6.584;2023-02-15T03:29:52;3.00;99.90
6098;DHT22;3077;50.922;6.584;2023-02-15T03:32:19;2.30;97.80
6098;DHT22;3077;50.922;6.584;2023-02-15T03:34:45;2.30;99.90
6098;DHT22;3077;50.922;6.584;2023-02-15T03:37:23;2.20;96.80
6098;DHT22;3077;50.922;6.584;2023-02-15T03:39:58;2.20;99.90
6098;DHT22;3077;50.922;6.584;2023-02-15T03:42:44;4.50;99.90
6098;DHT22;3077;50.922;6.584;2023-02-15T03:45:15;2.10;99.90
6098;DHT22;3077;50.922;6.584;2023-02-15T03:47:46;2.20;99.90
6098;DHT22;3077;50.922;6.584;2023-02-15T03:53:02;2.10;99.90
6098;DHT22;3077;50.922;6.584;2023-02-15T03:55:29;2.20;99.90
6098;DHT22;3077;50.922;6.584;2023-02-15T03:57:55;2.20;99.90
6098;DHT22;3077;50.922;6.584;2023-02-15T04:00:49;2.20;99.10
6098;DHT22;3077;50.922;6.584;2023-02-15T04:03:45;2.10;99.60
6098;DHT22;3077;50.922;6.584;2023-02-15T04:06:14;2.10;99.90
6098;DHT22;3077;50.922;6.584;2023-02-15T04:08:40;2.10;99.90
6098;DHT22;3077;50.922;6.584;2023-02-15T04:11:25;2.00;97.40
6098;DHT22;3077;50.922;6.584;2023-02-15T04:13:50;2.10;99.50
6098;DHT22;3077;50.922;6.584;2023-02-15T04:16:23;2.10;97.70
6098;DHT22;3077;50.922;6.584;2023-02-15T04:18:48;2.10;95.80
6098;DHT22;3077;50.922;6.584;2023-02-15T04:21:33;2.10;95.60
6098;DHT22;3077;50.922;6.584;2023-02-15T04:24:18;2.10;99.80
6098;DHT22;3077;50.922;6.584;2023-02-15T04:27:03;2.00;86.20
6098;DHT22;3077;50.922;6.584;2023-02-15T04:29:30;2.10;93.70
6098;DHT22;3077;50.922;6.584;2023-02-15T04:31:57;2.10;95.70
6098;DHT22;3077;50.922;6.584;2023-02-15T04:34:23;2.10;90.00
6098;DHT22;3077;50.922;6.584;2023-02-15T04:36:49;2.10;83.00
6098;DHT22;3077;50.922;6.584;2023-02-15T04:39:16;2.10;78.00
6098;DHT22;3077;50.922;6.584;2023-02-15T04:41:42;2.10;67.30
6098;DHT22;3077;50.922;6.584;2023-02-15T04:44:08;2.40;81.90
6098;DHT22;3077;50.922;6.584;2023-02-15T04:46:34;2.00;58.50
6098;DHT22;3077;50.922;6.584;2023-02-15T04:48:59;2.00;57.50
6098;DHT22;3077;50.922;6.584;2023-02-15T04:51:25;2.00;60.40
6098;DHT22;3077;50.922;6.584;2023-02-15T04:53:51;1.90;55.10
6098;DHT22;3077;50.922;6.584;2023-02-15T04:56:20;1.90;52.60
6098;DHT22;3077;50.922;6.584;2023-02-15T04:58:46;1.90;59.90
6098;DHT22;3077;50.922;6.584;2023-02-15T05:01:11;1.90;60.10
6098;DHT22;3077;50.922;6.584;2023-02-15T05:03:37;1.80;55.60
6098;DHT22;3077;50.922;6.584;2023-02-15T05:06:03;1.70;63.70
6098;DHT22;3077;50.922;6.584;2023-02-15T05:08:28;2.80;68.10
6098;DHT22;3077;50.922;6.584;2023-02-15T05:10:54;1.70;69.40
6098;DHT22;3077;50.922;6.584;2023-02-15T05:13:19;1.60;73.10
6098;DHT22;3077;50.922;6.584;2023-02-15T05:15:49;1.70;91.70
6098;DHT22;3077;50.922;6.584;2023-02-15T05:18:16;1.60;92.10
6098;DHT22;3077;50.922;6.584;2023-02-15T05:20:42;1.60;95.70
6098;DHT22;3077;50.922;6.584;2023-02-15T05:23:08;1.60;99.00
6098;DHT22;3077;50.922;6.584;2023-02-15T05:25:33;1.60;99.90
6098;DHT22;3077;50.922;6.584;2023-02-15T05:28:18;1.60;99.90
6098;DHT22;3077;50.922;6.584;2023-02-15T05:30:57;1.50;99.90
6098;DHT22;3077;50.922;6.584;2023-02-15T05:33:24;1.50;99.90
6098;DHT22;3077;50.922;6.584;2023-02-15T05:35:49;1.40;99.90
6098;DHT22;3077;50.922;6.584;2023-02-15T05:38:17;1.50;99.90
6098;DHT22;3077;50.922;6.584;2023-02-15T05:40:43;1.50;99.90
6098;DHT22;3077;50.922;6.584;2023-02-15T05:43:08;1.50;99.90
6098;DHT22;3077;50.922;6.584;2023-02-15T05:45:34;1.50;99.90
6098;DHT22;3077;50.922;6.584;2023-02-15T05:48:00;1.50;99.90
6098;DHT22;3077;50.922;6.584;2023-02-15T05:50:26;1.50;99.90
6098;DHT22;3077;50.922;6.584;2023-02-15T05:52:52;1.50;99.90
6098;DHT22;3077;50.922;6.584;2023-02-15T05:55:18;1.50;99.90
6098;DHT22;3077;50.922;6.584;2023-02-15T05:57:43;1.50;99.90
6098;DHT22;3077;50.922;6.584;2023-02-15T06:00:09;1.50;99.90
6098;DHT22;3077;50.922;6.584;2023-02-15T06:02:36;1.50;99.90
6098;DHT22;3077;50.922;6.584;2023-02-15T06:05:03;1.40;99.90
6098;DHT22;3077;50.922;6.584;2023-02-15T06:07:29;1.40;99.90
6098;DHT22;3077;50.922;6.584;2023-02-15T06:09:54;1.40;99.90
6098;DHT22;3077;50.922;6.584;2023-02-15T06:12:20;1.40;99.90
6098;DHT22;3077;50.922;6.584;2023-02-15T06:14:45;1.40;99.90
6098;DHT22;3077;50.922;6.584;2023-02-15T06:17:11;1.40;99.90
6098;DHT22;3077;50.922;6.584;2023-02-15T06:19:36;1.50;99.90
6098;DHT22;3077;50.922;6.584;2023-02-15T06:22:02;1.50;99.90
6098;DHT22;3077;50.922;6.584;2023-02-15T06:24:27;1.50;99.90
6098;DHT22;3077;50.922;6.584;2023-02-15T06:26:53;1.50;99.90
6098;DHT22;3077;50.922;6.584;2023-02-15T06:29:19;1.40;99.90
6098;DHT22;3077;50.922;6.584;2023-02-15T06:31:44;1.40;99.90
6098;DHT22;3077;50.922;6.584;2023-02-15T06:34:10;1.40;99.90
6098;DHT22;3077;50.922;6.584;2023-02-15T06:36:35;1.40;99.90
6098;DHT22;3077;50.922;6.584;2023-02-15T06:39:02;1.30;99.90
6098;DHT22;3077;50.922;6.584;2023-02-15T06:41:28;1.40;99.90
6098;DHT22;3077;50.922;6.584;2023-02-15T06:43:54;1.40;99.90
6098;DHT22;3077;50.922;6.584;2023-02-15T06:46:19;1.40;99.90
6098;DHT22;3077;50.922;6.584;2023-02-15T06:48:45;1.30;99.90
6098;DHT22;3077;50.922;6.584;2023-02-15T06:51:11;1.40;99.90
6098;DHT22;3077;50.922;6.584;2023-02-15T06:53:36;1.30;99.90
6098;DHT22;3077;50.922;6.584;2023-02-15T06:56:03;1.40;99.90
6098;DHT22;3077;50.922;6.584;2023-02-15T06:58:32;1.30;99.90
6098;DHT22;3077;50.922;6.584;2023-02-15T07:00:58;1.40;99.90
6098;DHT22;3077;50.922;6.584;2023-02-15T07:03:24;1.40;99.90
6098;DHT22;3077;50.922;6.584;2023-02-15T07:05:56;1.40;99.90
6098;DHT22;3077;50.922;6.584;2023-02-15T07:08:23;1.40;99.90
6098;DHT22;3077;50.922;6.584;2023-02-15T07:10:53;2.70;99.90
6098;DHT22;3077;50.922;6.584;2023-02-15T07:13:20;1.50;99.90
6098;DHT22;3077;50.922;6.584;2023-02-15T07:15:48;1.50;99.90
6098;DHT22;3077;50.922;6.584;2023-02-15T07:18:14;1.60;99.90
6098;DHT22;3077;50.922;6.584;2023-02-15T07:20:39;1.60;99.90
6098;DHT22;3077;50.922;6.584;2023-02-15T07:23:08;1.60;99.90
6098;DHT22;3077;50.922;6.584;2023-02-15T07:25:34;1.70;99.90
6098;DHT22;3077;50.922;6.584;2023-02-15T07:28:02;1.70;99.90
6098;DHT22;3077;50.922;6.584;2023-02-15T07:30:28;1.90;99.90
6098;DHT22;3077;50.922;6.584;2023-02-15T07:32:56;1.70;99.90
6098;DHT22;3077;50.922;6.584;2023-02-15T07:35:52;1.80;99.90
6098;DHT22;3077;50.922;6.584;2023-02-15T07:38:18;1.90;99.90
6098;DHT22;3077;50.922;6.584;2023-02-15T07:40:44;4.00;99.90
6098;DHT22;3077;50.922;6.584;2023-02-15T07:43:10;2.00;99.90
6098;DHT22;3077;50.922;6.584;2023-02-15T07:45:35;2.10;99.90
6098;DHT22;3077;50.922;6.584;2023-02-15T07:48:02;2.10;99.90
6098;DHT22;3077;50.922;6.584;2023-02-15T07:50:28;2.20;99.90
6098;DHT22;3077;50.922;6.584;2023-02-15T07:52:53;2.10;99.90
6098;DHT22;3077;50.922;6.584;2023-02-15T07:55:19;2.10;99.90
6098;DHT22;3077;50.922;6.584;2023-02-15T07:57:46;2.30;99.90
6098;DHT22;3077;50.922;6.584;2023-02-15T08:00:14;2.40;99.90
6098;DHT22;3077;50.922;6.584;2023-02-15T08:02:39;2.50;99.90
6098;DHT22;3077;50.922;6.584;2023-02-15T08:05:06;2.50;99.90
6098;DHT22;3077;50.922;6.584;2023-02-15T08:07:31;2.60;99.90
6098;DHT22;3077;50.922;6.584;2023-02-15T08:09:57;2.70;99.90
6098;DHT22;3077;50.922;6.584;2023-02-15T08:12:26;2.80;99.90
6098;DHT22;3077;50.922;6.584;2023-02-15T08:14:51;2.90;99.90
6098;DHT22;3077;50.922;6.584;2023-02-15T08:17:17;3.00;99.90
6098;DHT22;3077;50.922;6.584;2023-02-15T08:19:43;3.00;99.90
6098;DHT22;3077;50.922;6.584;2023-02-15T08:22:12;3.10;99.90
6098;DHT22;3077;50.922;6.584;2023-02-15T08:24:39;3.10;99.90
6098;DHT22;3077;50.922;6.584;2023-02-15T08:27:06;3.20;99.90
6098;DHT22;3077;50.922;6.584;2023-02-15T08:29:33;3.20;99.90
6098;DHT22;3077;50.922;6.584;2023-02-15T08:32:05;3.30;99.90
6098;DHT22;3077;50.922;6.584;2023-02-15T08:34:34;3.40;99.90
6098;DHT22;3077;50.922;6.584;2023-02-15T08:37:00;3.50;99.90
6098;DHT22;3077;50.922;6.584;2023-02-15T08:39:26;3.60;97.10
6098;DHT22;3077;50.922;6.584;2023-02-15T08:41:52;3.70;90.50
6098;DHT22;3077;50.922;6.584;2023-02-15T08:44:19;4.00;97.70
6098;DHT22;3077;50.922;6.584;2023-02-15T08:46:46;3.90;82.00
6098;DHT22;3077;50.922;6.584;2023-02-15T08:49:17;4.00;76.70
6098;DHT22;3077;50.922;6.584;2023-02-15T08:51:43;4.20;70.00
6098;DHT22;3077;50.922;6.584;2023-02-15T08:54:13;4.50;21.30
6098;DHT22;3077;50.922;6.584;2023-02-15T08:56:40;4.50;7.60
6098;DHT22;3077;50.922;6.584;2023-02-15T08:59:11;4.50;1.00
6098;DHT22;3077;50.922;6.584;2023-02-15T09:01:37;4.70;1.00
6098;DHT22;3077;50.922;6.584;2023-02-15T09:04:05;4.70;1.00
6098;DHT22;3077;50.922;6.584;2023-02-15T09:06:34;4.80;1.00
6098;DHT22;3077;50.922;6.584;2023-02-15T09:09:00;4.90;1.00
6098;DHT22;3077;50.922;6.584;2023-02-15T09:11:27;5.00;1.00
6098;DHT22;3077;50.922;6.584;2023-02-15T09:14:05;5.00;1.00
6098;DHT22;3077;50.922;6.584;2023-02-15T09:16:32;5.10;1.00
6098;DHT22;3077;50.922;6.584;2023-02-15T09:18:59;5.10;1.00
6098;DHT22;3077;50.922;6.584;2023-02-15T09:21:30;5.20;1.00
6098;DHT22;3077;50.922;6.584;2023-02-15T09:23:58;5.40;1.00
6098;DHT22;3077;50.922;6.584;2023-02-15T09:26:27;5.50;99.90
6098;DHT22;3077;50.922;6.584;2023-02-15T09:28:55;5.60;99.90
6098;DHT22;3077;50.922;6.584;2023-02-15T09:31:24;5.80;99.90
6098;DHT22;3077;50.922;6.584;2023-02-15T09:33:50;5.90;99.90
6098;DHT22;3077;50.922;6.584;2023-02-15T10:00:54;7.00;99.90
6098;DHT22;3077;50.922;6.584;2023-02-15T10:05:53;7.20;99.90
6098;DHT22;3077;50.922;6.584;2023-02-15T10:11:14;7.50;99.90
6098;DHT22;3077;50.922;6.584;2023-02-15T10:19:57;8.00;99.90
6098;DHT22;3077;50.922;6.584;2023-02-15T10:27:46;8.50;99.90
6098;DHT22;3077;50.922;6.584;2023-02-15T10:33:14;8.80;99.90
6098;DHT22;3077;50.922;6.584;2023-02-15T10:40:57;9.20;99.90
6098;DHT22;3077;50.922;6.584;2023-02-15T10:54:54;9.60;99.90
6098;DHT22;3077;50.922;6.584;2023-02-15T10:57:34;9.80;99.90
6098;DHT22;3077;50.922;6.584;2023-02-15T11:00:16;9.90;99.90
6098;DHT22;3077;50.922;6.584;2023-02-15T11:03:31;10.10;99.90
6098;DHT22;3077;50.922;6.584;2023-02-15T11:06:08;10.20;99.90
6098;DHT22;3077;50.922;6.584;2023-02-15T11:08:40;10.30;99.90
6098;DHT22;3077;50.922;6.584;2023-02-15T11:11:11;10.60;99.90
6098;DHT22;3077;50.922;6.584;2023-02-15T11:13:45;10.60;99.90
6098;DHT22;3077;50.922;6.584;2023-02-15T11:16:25;10.80;99.90
6098;DHT22;3077;50.922;6.584;2023-02-15T11:18:59;10.90;99.90
6098;DHT22;3077;50.922;6.584;2023-02-15T11:21:32;11.00;99.90
6098;DHT22;3077;50.922;6.584;2023-02-15T11:23:59;11.20;99.90
6098;DHT22;3077;50.922;6.584;2023-02-15T11:29:12;11.50;99.90
6098;DHT22;3077;50.922;6.584;2023-02-15T11:31:56;11.60;99.90
6098;DHT22;3077;50.922;6.584;2023-02-15T11:34:34;11.70;99.90
6098;DHT22;3077;50.922;6.584;2023-02-15T11:37:13;11.80;99.90
6098;DHT22;3077;50.922;6.584;2023-02-15T11:39:42;12.00;99.90
6098;DHT22;3077;50.922;6.584;2023-02-15T11:42:14;12.30;99.90
6098;DHT22;3077;50.922;6.584;2023-02-15T11:44:56;12.70;99.90
6098;DHT22;3077;50.922;6.584;2023-02-15T11:47:23;13.20;99.90
6098;DHT22;3077;50.922;6.584;2023-02-15T11:49:49;14.10;99.90
6098;DHT22;3077;50.922;6.584;2023-02-15T11:52:16;14.80;99.90
6098;DHT22;3077;50.922;6.584;2023-02-15T11:54:45;15.50;99.90
6098;DHT22;3077;50.922;6.584;2023-02-15T11:57:17;16.20;99.90
6098;DHT22;3077;50.922;6.584;2023-02-15T12:02:33;17.40;98.20
6098;DHT22;3077;50.922;6.584;2023-02-15T12:05:05;17.80;94.00
6098;DHT22;3077;50.922;6.584;2023-02-15T12:07:36;18.00;91.10
6098;DHT22;3077;50.922;6.584;2023-02-15T12:12:47;18.60;79.70
6098;DHT22;3077;50.922;6.584;2023-02-15T12:15:13;18.80;74.60
6098;DHT22;3077;50.922;6.584;2023-02-15T12:17:47;19.10;69.90
6098;DHT22;3077;50.922;6.584;2023-02-15T12:22:45;19.50;55.00
6098;DHT22;3077;50.922;6.584;2023-02-15T12:25:39;19.80;53.30
6098;DHT22;3077;50.922;6.584;2023-02-15T12:30:53;20.60;41.40
6098;DHT22;3077;50.922;6.584;2023-02-15T12:36:05;20.80;38.70
6098;DHT22;3077;50.922;6.584;2023-02-15T12:38:34;20.60;36.50
6098;DHT22;3077;50.922;6.584;2023-02-15T12:41:21;20.40;35.30
6098;DHT22;3077;50.922;6.584;2023-02-15T12:43:47;20.30;33.70
6098;DHT22;3077;50.922;6.584;2023-02-15T12:46:27;20.40;34.50
6098;DHT22;3077;50.922;6.584;2023-02-15T12:56:48;21.40;27.90
6098;DHT22;3077;50.922;6.584;2023-02-15T12:59:14;21.50;26.10
6098;DHT22;3077;50.922;6.584;2023-02-15T13:01:46;21.30;26.60
6098;DHT22;3077;50.922;6.584;2023-02-15T13:04:22;21.60;27.20
6098;DHT22;3077;50.922;6.584;2023-02-15T13:06:51;21.30;23.90
6098;DHT22;3077;50.922;6.584;2023-02-15T13:11:50;21.10;24.60
6098;DHT22;3077;50.922;6.584;2023-02-15T13:14:33;21.50;25.30
6098;DHT22;3077;50.922;6.584;2023-02-15T13:17:02;21.90;24.00
6098;DHT22;3077;50.922;6.584;2023-02-15T13:19:33;22.70;24.60
6098;DHT22;3077;50.922;6.584;2023-02-15T13:22:02;23.20;21.90
6098;DHT22;3077;50.922;6.584;2023-02-15T13:27:03;23.20;18.70
6098;DHT22;3077;50.922;6.584;2023-02-15T13:29:33;23.50;17.10
6098;DHT22;3077;50.922;6.584;2023-02-15T13:32:10;23.80;16.70
6098;DHT22;3077;50.922;6.584;2023-02-15T13:34:38;24.00;15.60
6098;DHT22;3077;50.922;6.584;2023-02-15T13:42:56;24.40;13.00
6098;DHT22;3077;50.922;6.584;2023-02-15T13:48:47;24.90;12.40
6098;DHT22;3077;50.922;6.584;2023-02-15T13:57:02;24.80;9.50
6098;DHT22;3077;50.922;6.584;2023-02-15T13:59:51;24.60;10.10
6098;DHT22;3077;50.922;6.584;2023-02-15T14:02:51;24.40;9.50
6098;DHT22;3077;50.922;6.584;2023-02-15T14:13:42;24.70;11.60
6098;DHT22;3077;50.922;6.584;2023-02-15T14:27:52;24.10;10.40
6098;DHT22;3077;50.922;6.584;2023-02-15T14:30:36;23.70;10.80
6098;DHT22;3077;50.922;6.584;2023-02-15T14:33:25;23.50;9.70
6098;DHT22;3077;50.922;6.584;2023-02-15T14:35:50;23.60;10.20
6098;DHT22;3077;50.922;6.584;2023-02-15T14:41:18;23.50;10.80
6098;DHT22;3077;50.922;6.584;2023-02-15T14:46:52;23.70;9.90
6098;DHT22;3077;50.922;6.584;2023-02-15T14:49:30;23.50;8.90
6098;DHT22;3077;50.922;6.584;2023-02-15T14:52:03;22.90;9.80
6098;DHT22;3077;50.922;6.584;2023-02-15T15:02:29;20.40;14.60
6098;DHT22;3077;50.922;6.584;2023-02-15T15:05:08;19.60;15.50
6098;DHT22;3077;50.922;6.584;2023-02-15T15:07:55;19.00;16.30
6098;DHT22;3077;50.922;6.584;2023-02-15T15:12:51;18.00;19.20
6098;DHT22;3077;50.922;6.584;2023-02-15T15:18:08;17.30;22.70
6098;DHT22;3077;50.922;6.584;2023-02-15T15:20:44;16.80;23.40
6098;DHT22;3077;50.922;6.584;2023-02-15T15:42:32;15.40;38.50
6098;DHT22;3077;50.922;6.584;2023-02-15T15:50:19;15.00;45.30
6098;DHT22;3077;50.922;6.584;2023-02-15T15:52:59;15.00;50.10
6098;DHT22;3077;50.922;6.584;2023-02-15T15:55:28;14.80;48.00
6098;DHT22;3077;50.922;6.584;2023-02-15T15:58:06;14.70;50.90
6098;DHT22;3077;50.922;6.584;2023-02-15T16:03:26;14.60;58.20
6098;DHT22;3077;50.922;6.584;2023-02-15T16:05:53;14.40;58.00
6098;DHT22;3077;50.922;6.584;2023-02-15T16:08:33;14.30;63.40
6098;DHT22;3077;50.922;6.584;2023-02-15T16:11:16;14.20;66.90
6098;DHT22;3077;50.922;6.584;2023-02-15T16:13:43;14.10;72.80
6098;DHT22;3077;50.922;6.584;2023-02-15T16:16:12;14.00;75.30
6098;DHT22;3077;50.922;6.584;2023-02-15T16:18:38;13.90;80.00
6098;DHT22;3077;50.922;6.584;2023-02-15T16:21:18;13.80;83.10
6098;DHT22;3077;50.922;6.584;2023-02-15T16:29:15;13.50;92.30
6098;DHT22;3077;50.922;6.584;2023-02-15T16:31:41;13.50;93.70
6098;DHT22;3077;50.922;6.584;2023-02-15T16:34:14;13.40;95.50
6098;DHT22;3077;50.922;6.584;2023-02-15T16:36:41;13.30;96.70
6098;DHT22;3077;50.922;6.584;2023-02-15T16:39:09;13.20;98.00
6098;DHT22;3077;50.922;6.584;2023-02-15T16:41:36;13.10;99.20
6098;DHT22;3077;50.922;6.584;2023-02-15T16:44:12;13.00;99.90
6098;DHT22;3077;50.922;6.584;2023-02-15T16:46:43;12.70;99.90
6098;DHT22;3077;50.922;6.584;2023-02-15T16:49:20;12.60;99.90
6098;DHT22;3077;50.922;6.584;2023-02-15T16:51:59;12.40;99.90
6098;DHT22;3077;50.922;6.584;2023-02-15T16:54:26;12.30;99.90
6098;DHT22;3077;50.922;6.584;2023-02-15T16:56:52;12.30;99.90
6098;DHT22;3077;50.922;6.584;2023-02-15T16:59:41;12.20;99.90
6098;DHT22;3077;50.922;6.584;2023-02-15T17:02:21;12.30;99.90
6098;DHT22;3077;50.922;6.584;2023-02-15T17:07:40;12.00;99.90
6098;DHT22;3077;50.922;6.584;2023-02-15T17:12:56;11.80;99.90
6098;DHT22;3077;50.922;6.584;2023-02-15T17:15:32;11.70;99.90
6098;DHT22;3077;50.922;6.584;2023-02-15T17:18:03;11.40;99.90
6098;DHT22;3077;50.922;6.584;2023-02-15T17:20:30;11.30;99.90
6098;DHT22;3077;50.922;6.584;2023-02-15T17:22:57;11.20;99.90
6098;DHT22;3077;50.922;6.584;2023-02-15T17:25:32;11.20;99.90
6098;DHT22;3077;50.922;6.584;2023-02-15T17:28:00;11.10;99.90
6098;DHT22;3077;50.922;6.584;2023-02-15T17:30:34;11.10;99.90
6098;DHT22;3077;50.922;6.584;2023-02-15T17:33:04;11.10;99.90
6098;DHT22;3077;50.922;6.584;2023-02-15T17:35:43;11.10;99.90
6098;DHT22;3077;50.922;6.584;2023-02-15T17:38:17;11.10;99.90
6098;DHT22;3077;50.922;6.584;2023-02-15T17:40:43;11.00;99.90
6098;DHT22;3077;50.922;6.584;2023-02-15T17:43:08;11.00;99.90
6098;DHT22;3077;50.922;6.584;2023-02-15T17:45:36;10.90;99.90
6098;DHT22;3077;50.922;6.584;2023-02-15T17:48:05;10.80;99.90
6098;DHT22;3077;50.922;6.584;2023-02-15T17:50:32;10.70;99.90
6098;DHT22;3077;50.922;6.584;2023-02-15T17:52:58;10.80;99.90
6098;DHT22;3077;50.922;6.584;2023-02-15T17:55:25;10.80;99.90
6098;DHT22;3077;50.922;6.584;2023-02-15T17:58:06;10.70;99.90
6098;DHT22;3077;50.922;6.584;2023-02-15T18:00:35;9.60;99.90
6098;DHT22;3077;50.922;6.584;2023-02-15T18:03:20;10.70;99.90
6098;DHT22;3077;50.922;6.584;2023-02-15T18:06:05;10.50;99.90
6098;DHT22;3077;50.922;6.584;2023-02-15T18:08:49;10.60;99.90
6098;DHT22;3077;50.922;6.584;2023-02-15T18:11:33;10.40;99.90
6098;DHT22;3077;50.922;6.584;2023-02-15T18:14:06;10.30;99.90
6098;DHT22;3077;50.922;6.584;2023-02-15T18:16:37;10.40;99.90
6098;DHT22;3077;50.922;6.584;2023-02-15T18:19:12;10.10;99.90
6098;DHT22;3077;50.922;6.584;2023-02-15T18:21:38;10.20;99.90
6098;DHT22;3077;50.922;6.584;2023-02-15T18:24:04;10.20;99.90
6098;DHT22;3077;50.922;6.584;2023-02-15T18:26:29;10.10;99.90
6098;DHT22;3077;50.922;6.584;2023-02-15T18:28:55;10.00;99.90
6098;DHT22;3077;50.922;6.584;2023-02-15T18:31:21;9.80;99.90
6098;DHT22;3077;50.922;6.584;2023-02-15T18:33:52;9.80;99.90
6098;DHT22;3077;50.922;6.584;2023-02-15T18:36:25;9.90;99.90
6098;DHT22;3077;50.922;6.584;2023-02-15T18:38:52;9.90;99.90
6098;DHT22;3077;50.922;6.584;2023-02-15T18:41:20;9.90;99.90
6098;DHT22;3077;50.922;6.584;2023-02-15T18:43:46;9.90;99.90
6098;DHT22;3077;50.922;6.584;2023-02-15T18:46:14;9.90;99.90
6098;DHT22;3077;50.922;6.584;2023-02-15T18:48:40;9.80;99.90
6098;DHT22;3077;50.922;6.584;2023-02-15T18:51:16;9.70;99.90
6098;DHT22;3077;50.922;6.584;2023-02-15T18:53:44;9.60;99.90
6098;DHT22;3077;50.922;6.584;2023-02-15T18:56:15;9.60;99.90
6098;DHT22;3077;50.922;6.584;2023-02-15T18:58:43;9.60;99.90
6098;DHT22;3077;50.922;6.584;2023-02-15T19:01:20;9.50;99.90
6098;DHT22;3077;50.922;6.584;2023-02-15T19:03:47;9.40;99.90
6098;DHT22;3077;50.922;6.584;2023-02-15T19:06:14;9.40;99.90
6098;DHT22;3077;50.922;6.584;2023-02-15T19:08:43;9.40;99.90
6098;DHT22;3077;50.922;6.584;2023-02-15T19:11:21;9.50;99.90
6098;DHT22;3077;50.922;6.584;2023-02-15T19:13:48;9.40;1.50
6098;DHT22;3077;50.922;6.584;2023-02-15T19:16:34;9.40;99.90
6098;DHT22;3077;50.922;6.584;2023-02-15T19:19:00;9.50;1.00
6098;DHT22;3077;50.922;6.584;2023-02-15T19:21:27;9.40;33.40
6098;DHT22;3077;50.922;6.584;2023-02-15T19:24:02;9.40;6.90
6098;DHT22;3077;50.922;6.584;2023-02-15T19:26:30;9.30;1.00
6098;DHT22;3077;50.922;6.584;2023-02-15T19:29:00;9.30;1.00
6098;DHT22;3077;50.922;6.584;2023-02-15T19:31:26;9.20;1.00
6098;DHT22;3077;50.922;6.584;2023-02-15T19:33:52;9.30;1.00
6098;DHT22;3077;50.922;6.584;2023-02-15T19:36:18;9.10;1.00
6098;DHT22;3077;50.922;6.584;2023-02-15T19:38:47;9.00;1.00
6098;DHT22;3077;50.922;6.584;2023-02-15T19:41:29;9.00;1.00
6098;DHT22;3077;50.922;6.584;2023-02-15T19:43:56;8.90;1.00
6098;DHT22;3077;50.922;6.584;2023-02-15T19:46:23;8.90;1.00
6098;DHT22;3077;50.922;6.584;2023-02-15T19:48:50;8.70;1.00
6098;DHT22;3077;50.922;6.584;2023-02-15T19:51:17;8.70;99.90
6098;DHT22;3077;50.922;6.584;2023-02-15T19:53:44;8.80;99.90
6098;DHT22;3077;50.922;6.584;2023-02-15T19:56:19;8.70;1.00
6098;DHT22;3077;50.922;6.584;2023-02-15T19:58:45;8.50;49.20